createdAt,value
2022-10-16T00:01:44.711Z,11.80
2022-10-16T00:04:13.443Z,13.40
2022-10-16T00:06:41.413Z,11.70
2022-10-16T00:09:09.375Z,11.50
2022-10-16T00:11:40.205Z,14.00
2022-10-16T00:14:12.147Z,14.80
2022-10-16T00:16:40.920Z,13.00
2022-10-16T00:19:10.049Z,13.20
2022-10-16T00:21:37.932Z,13.40
2022-10-16T00:24:12.000Z,14.20
2022-10-16T00:26:41.116Z,14.20
2022-10-16T00:29:09.593Z,11.90
2022-10-16T00:31:37.407Z,13.50
2022-10-16T00:34:05.275Z,12.40
2022-10-16T00:36:33.232Z,11.70
2022-10-16T00:41:34.958Z,11.00
2022-10-16T00:44:41.466Z,10.50
2022-10-16T00:47:18.723Z,13.80
2022-10-16T00:49:48.745Z,10.90
2022-10-16T00:52:17.545Z,9.90
2022-10-16T00:54:47.329Z,11.00
2022-10-16T00:59:48.303Z,12.70
2022-10-16T01:02:18.093Z,10.00
2022-10-16T01:04:53.715Z,9.80
2022-10-16T01:07:58.882Z,10.20
2022-10-16T01:10:42.121Z,11.80
2022-10-16T01:13:22.192Z,10.50
2022-10-16T01:16:07.137Z,12.50
2022-10-16T01:18:47.644Z,12.10
2022-10-16T01:21:39.141Z,10.40
2022-10-16T01:24:19.551Z,9.10
2022-10-16T01:27:08.765Z,10.30
2022-10-16T01:29:49.728Z,10.00
2022-10-16T01:32:32.489Z,9.90
2022-10-16T01:35:06.020Z,10.60
2022-10-16T01:37:33.786Z,9.10
2022-10-16T01:40:06.290Z,9.10
2022-10-16T01:42:41.182Z,10.80
2022-10-16T01:45:12.385Z,10.00
2022-10-16T01:47:41.861Z,10.40
2022-10-16T01:50:10.174Z,9.40
2022-10-16T01:52:41.333Z,8.40
2022-10-16T01:55:11.471Z,9.40
2022-10-16T01:57:44.336Z,10.20
2022-10-16T02:00:14.963Z,9.30
2022-10-16T02:02:48.440Z,8.90
2022-10-16T02:05:29.422Z,9.40
2022-10-16T02:07:58.542Z,10.70
2022-10-16T02:10:32.449Z,8.50
2022-10-16T02:13:07.239Z,8.70
2022-10-16T02:15:35.069Z,10.30
2022-10-16T02:18:06.112Z,9.50
2022-10-16T02:20:41.063Z,9.60
2022-10-16T02:23:18.307Z,10.60
2022-10-16T02:25:48.208Z,8.00
2022-10-16T02:28:25.199Z,9.20
2022-10-16T02:31:04.551Z,9.00
2022-10-16T02:33:34.771Z,8.20
2022-10-16T02:36:02.927Z,7.70
2022-10-16T02:38:31.968Z,7.30
2022-10-16T02:41:00.061Z,7.00
2022-10-16T02:43:27.945Z,7.20
2022-10-16T02:45:55.923Z,8.40
2022-10-16T02:48:23.893Z,9.00
2022-10-16T02:50:52.140Z,7.50
2022-10-16T02:53:20.075Z,6.00
2022-10-16T02:55:47.835Z,8.60
2022-10-16T02:58:15.939Z,8.60
2022-10-16T03:00:43.966Z,9.30
2022-10-16T03:03:11.880Z,7.10
2022-10-16T03:05:39.935Z,5.90
2022-10-16T03:08:07.918Z,7.20
2022-10-16T03:10:35.711Z,7.20
2022-10-16T03:13:03.765Z,7.40
2022-10-16T03:15:31.810Z,6.10
2022-10-16T03:18:00.518Z,6.30
2022-10-16T03:20:28.321Z,5.90
2022-10-16T03:22:56.245Z,6.80
2022-10-16T03:25:24.047Z,5.50
2022-10-16T03:27:51.913Z,6.10
2022-10-16T03:30:19.870Z,5.00
2022-10-16T03:32:47.761Z,5.30
2022-10-16T03:35:15.725Z,5.20
2022-10-16T03:37:43.570Z,4.50
2022-10-16T03:40:11.762Z,4.90
2022-10-16T03:42:39.560Z,5.50
2022-10-16T03:45:07.858Z,5.40
2022-10-16T03:47:35.757Z,4.30
2022-10-16T03:50:04.884Z,3.80
2022-10-16T03:52:33.266Z,4.30
2022-10-16T03:55:01.060Z,5.10
2022-10-16T03:57:29.285Z,3.70
2022-10-16T03:59:57.583Z,3.70
2022-10-16T04:02:25.810Z,4.70
2022-10-16T04:04:53.753Z,3.40
2022-10-16T04:07:21.769Z,5.10
2022-10-16T04:09:49.724Z,3.20
2022-10-16T04:12:17.478Z,2.40
2022-10-16T04:14:45.440Z,2.70
2022-10-16T04:17:13.226Z,3.10
2022-10-16T04:19:41.034Z,2.60
2022-10-16T04:22:09.171Z,2.20
2022-10-16T04:24:37.053Z,12.20
2022-10-16T04:27:04.859Z,2.60
2022-10-16T04:29:32.770Z,2.30
2022-10-16T04:32:00.603Z,2.90
2022-10-16T04:34:28.398Z,2.50
2022-10-16T04:36:56.266Z,2.60
2022-10-16T04:39:24.071Z,2.60
2022-10-16T04:41:51.993Z,3.50
2022-10-16T04:44:19.876Z,2.70
2022-10-16T04:46:47.730Z,2.30
2022-10-16T04:49:15.567Z,3.10
2022-10-16T04:51:43.448Z,2.70
2022-10-16T04:54:11.482Z,2.70
2022-10-16T04:56:47.181Z,2.90
2022-10-16T04:59:16.074Z,2.50
2022-10-16T05:01:44.126Z,2.90
2022-10-16T05:04:12.273Z,3.10
2022-10-16T05:06:40.079Z,2.70
2022-10-16T05:09:08.390Z,3.40
2022-10-16T05:11:36.641Z,2.70
2022-10-16T05:14:04.787Z,3.90
2022-10-16T05:16:32.808Z,3.20
2022-10-16T05:19:26.662Z,4.10
2022-10-16T05:21:48.609Z,3.70
2022-10-16T05:24:17.167Z,3.30
2022-10-16T05:26:45.037Z,3.10
2022-10-16T05:29:13.095Z,3.50
2022-10-16T05:31:41.070Z,5.70
2022-10-16T05:34:08.899Z,4.40
2022-10-16T05:36:36.814Z,4.00
2022-10-16T05:39:04.754Z,3.50
2022-10-16T05:41:32.805Z,3.40
2022-10-16T05:44:00.690Z,3.60
2022-10-16T05:46:28.522Z,4.80
2022-10-16T05:48:56.382Z,5.40
2022-10-16T05:51:24.273Z,7.90
2022-10-16T05:53:53.234Z,5.30
2022-10-16T05:56:21.039Z,4.60
2022-10-16T05:58:48.845Z,4.40
2022-10-16T06:01:19.049Z,5.40
2022-10-16T06:03:47.016Z,5.70
2022-10-16T06:06:17.697Z,5.80
2022-10-16T06:08:47.148Z,6.70
2022-10-16T06:11:20.592Z,6.40
2022-10-16T06:13:52.715Z,4.50
2022-10-16T06:16:21.446Z,6.40
2022-10-16T06:18:49.261Z,6.80
2022-10-16T06:21:23.006Z,6.40
2022-10-16T06:23:50.787Z,6.20
2022-10-16T06:26:21.446Z,7.70
2022-10-16T06:28:50.110Z,5.40
2022-10-16T06:31:18.629Z,5.60
2022-10-16T06:33:49.237Z,5.30
2022-10-16T06:36:18.770Z,6.60
2022-10-16T06:38:46.657Z,4.80
2022-10-16T06:41:17.391Z,4.80
2022-10-16T06:43:46.468Z,5.20
2022-10-16T06:46:16.866Z,5.20
2022-10-16T06:48:44.775Z,4.90
2022-10-16T06:51:15.687Z,8.10
2022-10-16T06:54:02.872Z,7.00
2022-10-16T06:56:33.917Z,4.50
2022-10-16T06:59:03.065Z,5.20
2022-10-16T07:01:31.556Z,4.50
2022-10-16T07:04:00.907Z,5.80
2022-10-16T07:06:33.440Z,4.90
2022-10-16T07:09:04.692Z,4.20
2022-10-16T07:11:33.366Z,5.20
2022-10-16T07:14:01.358Z,5.30
2022-10-16T07:16:31.553Z,4.20
2022-10-16T07:19:02.219Z,4.50
2022-10-16T07:21:36.309Z,6.80
2022-10-16T07:24:07.140Z,6.20
2022-10-16T07:26:37.712Z,8.60
2022-10-16T07:29:07.847Z,9.70
2022-10-16T07:31:35.805Z,6.50
2022-10-16T07:34:03.709Z,6.60
2022-10-16T07:36:31.713Z,5.30
2022-10-16T07:39:00.368Z,7.00
2022-10-16T07:41:29.189Z,5.30
2022-10-16T07:44:01.142Z,5.20
2022-10-16T07:46:29.894Z,6.30
2022-10-16T07:48:58.126Z,6.10
2022-10-16T07:51:27.149Z,6.20
2022-10-16T07:53:55.952Z,5.10
2022-10-16T07:56:24.573Z,5.90
2022-10-16T07:58:53.291Z,6.30
2022-10-16T08:01:21.638Z,6.50
2022-10-16T08:03:51.429Z,7.00
2022-10-16T08:06:25.132Z,9.90
2022-10-16T08:09:00.980Z,7.30
2022-10-16T08:11:28.880Z,7.90
2022-10-16T08:13:56.658Z,6.60
2022-10-16T08:16:24.554Z,7.00
2022-10-16T08:18:52.887Z,6.30
2022-10-16T08:21:24.163Z,6.80
2022-10-16T08:23:57.101Z,7.90
2022-10-16T08:26:27.847Z,5.70
2022-10-16T08:28:57.207Z,5.80
2022-10-16T08:31:25.687Z,6.20
2022-10-16T08:33:53.926Z,7.50
2022-10-16T08:36:22.048Z,6.00
2022-10-16T08:38:51.524Z,4.40
2022-10-16T08:41:25.336Z,5.20
2022-10-16T08:44:21.545Z,5.30
2022-10-16T08:46:52.341Z,6.60
2022-10-16T08:49:20.621Z,4.90
2022-10-16T08:51:50.649Z,5.50
2022-10-16T08:54:34.679Z,5.60
2022-10-16T08:57:10.330Z,5.10
2022-10-16T08:59:38.137Z,7.50
2022-10-16T09:02:36.273Z,9.20
2022-10-16T09:05:27.182Z,5.30
2022-10-16T09:10:37.883Z,5.90
2022-10-16T09:13:28.668Z,7.10
2022-10-16T09:16:23.353Z,7.30
2022-10-16T09:19:19.284Z,17.70
2022-10-16T09:21:49.082Z,11.90
2022-10-16T09:24:19.959Z,7.50
2022-10-16T09:26:48.607Z,6.90
2022-10-16T09:29:21.919Z,6.40
2022-10-16T09:31:49.805Z,11.10
2022-10-16T09:34:32.245Z,7.60
2022-10-16T09:37:04.526Z,5.60
2022-10-16T09:39:46.299Z,3.50
2022-10-16T09:42:23.417Z,3.10
2022-10-16T09:44:54.514Z,3.00
2022-10-16T09:47:26.536Z,4.20
2022-10-16T09:50:02.804Z,2.90
2022-10-16T09:52:32.117Z,4.50
2022-10-16T09:55:14.392Z,3.50
2022-10-16T09:57:55.689Z,3.00
2022-10-16T10:00:25.778Z,3.40
2022-10-16T10:05:30.376Z,8.20
2022-10-16T10:08:07.109Z,9.70
2022-10-16T10:10:42.445Z,8.60
2022-10-16T10:13:36.758Z,6.30
2022-10-16T10:16:04.937Z,4.80
2022-10-16T10:18:33.082Z,5.00
2022-10-16T10:23:31.852Z,3.20
2022-10-16T10:26:25.683Z,3.50
2022-10-16T10:28:59.367Z,2.60
2022-10-16T10:31:39.523Z,3.30
2022-10-16T10:34:32.671Z,3.30
2022-10-16T10:37:28.742Z,2.70
2022-10-16T10:40:17.076Z,3.00
2022-10-16T10:42:54.902Z,3.10
2022-10-16T10:45:37.613Z,5.30
2022-10-16T10:48:24.954Z,3.50
2022-10-16T10:51:02.349Z,4.00
2022-10-16T10:53:42.978Z,4.40
